Time;durP1;ratioP1;P1;durP2;ratioP2;P2;SDS_P1;SDS_P2;PMS_P1;PMS_P2;Temp;Humidity;BMP_temperature;BMP_pressure;BME280_temperature;BME280_humidity;BME280_pressure;Samples;Min_cycle;Max_cycle;Signal;HPM_P1;HPM_P2
2022/03/30 00:00:31;;;;;;;6.37;2.80;;;5.20;99.90;;;;;;5076338;28;20212;-45
2022/03/30 00:02:58;;;;;;;7.53;3.00;;;5.20;99.90;;;;;;5085936;27;20591;-45
2022/03/30 00:05:25;;;;;;;3.20;1.80;;;5.20;99.90;;;;;;5083594;28;20430;-45
2022/03/30 00:07:52;;;;;;;8.10;2.20;;;5.20;99.90;;;;;;5096878;28;20624;-44
2022/03/30 00:10:19;;;;;;;13.97;2.77;;;5.10;99.90;;;;;;5078935;27;20284;-45
2022/03/30 00:12:47;;;;;;;5.17;2.13;;;5.10;99.90;;;;;;5080102;27;20207;-45
2022/03/30 00:15:14;;;;;;;4.70;2.43;;;5.00;99.90;;;;;;5077764;27;20207;-45
2022/03/30 00:17:42;;;;;;;5.97;2.60;;;5.00;99.90;;;;;;5078757;27;20317;-45
2022/03/30 00:20:10;;;;;;;9.80;2.47;;;5.10;99.90;;;;;;5069620;27;21034;-44
2022/03/30 00:22:38;;;;;;;4.30;2.43;;;5.10;99.90;;;;;;5098121;28;20415;-45
2022/03/30 00:25:06;;;;;;;5.17;1.90;;;5.00;99.90;;;;;;5081491;27;20284;-44
2022/03/30 00:27:33;;;;;;;5.83;2.40;;;5.00;99.90;;;;;;5093174;28;20199;-44
2022/03/30 00:30:00;;;;;;;8.87;2.77;;;5.00;99.90;;;;;;5073975;28;20806;-44
2022/03/30 00:32:26;;;;;;;11.10;2.50;;;5.00;99.90;;;;;;5100574;28;20196;-44
2022/03/30 00:34:55;;;;;;;5.87;2.70;;;5.00;99.90;;;;;;5095704;28;20230;-45
2022/03/30 00:37:22;;;;;;;4.23;2.73;;;5.00;99.90;;;;;;5079921;27;20211;-45
2022/03/30 00:39:49;;;;;;;7.97;2.60;;;4.90;99.90;;;;;;5094706;27;20216;-45
2022/03/30 00:42:16;;;;;;;7.10;2.40;;;5.00;99.90;;;;;;5092092;28;20626;-44
2022/03/30 00:44:43;;;;;;;7.73;3.07;;;5.00;99.90;;;;;;5079213;28;20302;-45
2022/03/30 00:47:14;;;;;;;4.73;2.40;;;5.00;99.90;;;;;;5076398;27;20446;-45
2022/03/30 00:49:42;;;;;;;8.00;2.80;;;5.00;99.90;;;;;;5091172;28;20261;-45
2022/03/30 00:52:10;;;;;;;6.40;2.83;;;5.00;99.90;;;;;;5065572;27;20203;-44
2022/03/30 00:54:38;;;;;;;12.07;3.00;;;5.10;99.90;;;;;;5086414;27;20353;-45
2022/03/30 00:57:09;;;;;;;7.07;2.63;;;5.10;99.90;;;;;;5078147;28;20229;-44
2022/03/30 00:59:36;;;;;;;7.23;2.93;;;5.10;99.90;;;;;;5100358;27;20238;-46
2022/03/30 01:02:04;;;;;;;8.33;2.50;;;5.10;99.90;;;;;;5072264;28;20283;-45
2022/03/30 01:04:32;;;;;;;10.30;3.43;;;5.10;99.90;;;;;;5079958;27;20340;-46
2022/03/30 01:06:59;;;;;;;7.73;3.00;;;5.10;99.90;;;;;;5082665;28;20221;-46
2022/03/30 01:09:27;;;;;;;5.77;2.80;;;5.10;99.90;;;;;;5083579;27;20325;-46
2022/03/30 01:11:55;;;;;;;4.47;2.60;;;5.10;99.90;;;;;;5084722;27;20253;-45
2022/03/30 01:14:23;;;;;;;4.17;2.20;;;5.30;99.90;;;;;;5093774;28;20295;-45
2022/03/30 01:16:50;;;;;;;6.87;2.70;;;4.90;99.90;;;;;;5069755;27;20245;-44
2022/03/30 01:19:18;;;;;;;4.90;2.87;;;4.80;99.90;;;;;;5079736;28;20211;-44
2022/03/30 01:21:46;;;;;;;10.33;2.67;;;4.80;99.90;;;;;;5084700;28;20518;-45
2022/03/30 01:24:14;;;;;;;6.40;3.03;;;4.70;99.90;;;;;;5086420;28;20223;-46
2022/03/30 01:26:41;;;;;;;3.97;2.37;;;4.70;99.90;;;;;;5071999;28;21117;-44
2022/03/30 01:34:35;;;;;;;5.60;2.50;;;4.70;99.90;;;;;;5075520;27;20234;-44
2022/03/30 01:37:04;;;;;;;6.67;2.53;;;4.70;99.90;;;;;;5082289;28;20355;-45
2022/03/30 01:39:31;;;;;;;7.33;2.63;;;4.60;99.90;;;;;;5080927;27;20208;-44
2022/03/30 01:41:58;;;;;;;5.87;2.87;;;4.60;99.90;;;;;;5090082;28;20234;-45
2022/03/30 01:44:25;;;;;;;7.17;2.80;;;4.60;99.90;;;;;;5087775;28;20329;-45
2022/03/30 01:46:52;;;;;;;5.37;2.97;;;4.70;99.90;;;;;;5059499;28;20410;-45
2022/03/30 01:49:21;;;;;;;5.70;2.80;;;4.70;99.90;;;;;;5093209;28;20390;-45
2022/03/30 01:51:49;;;;;;;9.50;3.00;;;4.70;99.90;;;;;;5077943;28;20282;-45
2022/03/30 01:54:18;;;;;;;5.87;2.87;;;4.70;99.90;;;;;;5072678;28;20243;-45
2022/03/30 01:56:45;;;;;;;5.90;3.07;;;4.80;99.90;;;;;;5093862;28;20337;-45
2022/03/30 01:59:12;;;;;;;10.70;2.97;;;4.80;99.90;;;;;;5093865;28;20267;-44
2022/03/30 02:01:40;;;;;;;3.67;2.47;;;4.80;99.90;;;;;;5065637;28;21227;-45
2022/03/30 02:04:07;;;;;;;6.63;2.73;;;4.80;99.90;;;;;;5090909;27;20461;-45
2022/03/30 02:06:34;;;;;;;6.13;2.90;;;4.90;99.90;;;;;;5091193;28;20483;-46
2022/03/30 02:09:01;;;;;;;9.17;3.23;;;4.90;99.90;;;;;;5056523;28;20402;-45
2022/03/30 02:11:29;;;;;;;8.00;3.10;;;4.90;99.90;;;;;;5093205;28;20531;-45
2022/03/30 02:13:57;;;;;;;6.27;2.80;;;4.90;99.90;;;;;;5086535;28;20974;-45
2022/03/30 02:16:25;;;;;;;6.73;2.97;;;4.90;99.90;;;;;;5094602;28;20535;-45
2022/03/30 02:18:51;;;;;;;8.27;2.90;;;4.90;99.90;;;;;;5069664;28;20735;-45
2022/03/30 02:21:18;;;;;;;6.67;3.00;;;4.90;99.90;;;;;;5092333;28;20230;-45
2022/03/30 02:23:46;;;;;;;6.60;2.67;;;4.90;99.90;;;;;;5073847;28;20410;-46
2022/03/30 02:26:13;;;;;;;7.40;3.10;;;5.00;99.90;;;;;;5077341;28;20199;-45
2022/03/30 02:28:43;;;;;;;5.43;2.67;;;5.00;99.90;;;;;;5085639;28;20207;-46
2022/03/30 02:31:10;;;;;;;3.53;2.47;;;5.10;99.90;;;;;;5092025;28;20265;-46
2022/03/30 02:33:37;;;;;;;7.13;3.10;;;5.10;99.90;;;;;;5082649;28;20232;-49
2022/03/30 02:36:05;;;;;;;6.80;2.53;;;5.10;99.90;;;;;;5084576;28;20318;-44
2022/03/30 02:38:32;;;;;;;2.83;2.57;;;5.20;99.90;;;;;;5089544;28;20520;-48
2022/03/30 02:40:59;;;;;;;8.20;3.30;;;5.10;99.90;;;;;;5057262;28;20215;-45
2022/03/30 02:43:26;;;;;;;7.37;2.90;;;5.10;99.90;;;;;;5083849;28;20231;-43
2022/03/30 02:45:54;;;;;;;5.87;2.77;;;5.20;99.90;;;;;;5071529;28;20414;-46
2022/03/30 02:48:28;;;;;;;7.27;2.60;;;5.20;99.90;;;;;;5091130;28;20301;-46
2022/03/30 02:50:56;;;;;;;7.63;2.90;;;5.20;99.90;;;;;;5077036;27;20472;-43
2022/03/30 02:53:24;;;;;;;8.17;2.73;;;5.20;99.90;;;;;;5078346;28;20228;-45
2022/03/30 02:55:51;;;;;;;5.17;2.50;;;5.30;99.90;;;;;;5079872;28;20208;-44
2022/03/30 02:58:19;;;;;;;5.10;2.77;;;5.30;99.90;;;;;;5064736;28;20500;-43
2022/03/30 03:00:46;;;;;;;6.23;3.17;;;5.30;99.90;;;;;;5081554;28;20207;-48
2022/03/30 03:03:15;;;;;;;7.17;3.03;;;5.30;99.90;;;;;;5093641;28;20326;-46
2022/03/30 03:05:42;;;;;;;8.47;3.37;;;5.30;99.90;;;;;;5069738;27;20529;-48
2022/03/30 03:08:11;;;;;;;8.73;3.37;;;5.30;99.90;;;;;;5080661;28;20314;-46
2022/03/30 03:10:40;;;;;;;7.23;3.17;;;5.30;99.90;;;;;;5089206;28;20214;-48
2022/03/30 03:13:07;;;;;;;12.63;3.23;;;5.30;99.90;;;;;;5075786;28;20233;-46
2022/03/30 03:15:36;;;;;;;5.20;3.30;;;5.40;99.90;;;;;;5085808;27;20203;-45
2022/03/30 03:18:03;;;;;;;8.50;2.93;;;5.30;99.90;;;;;;5071345;27;20220;-45
2022/03/30 03:20:33;;;;;;;7.43;3.03;;;5.30;99.90;;;;;;5080066;28;20291;-45
2022/03/30 03:23:02;;;;;;;9.37;3.07;;;5.40;99.90;;;;;;5094735;27;20208;-44
2022/03/30 03:25:29;;;;;;;6.00;2.93;;;5.40;99.90;;;;;;5070078;28;21082;-44
2022/03/30 03:27:56;;;;;;;5.93;2.87;;;5.40;99.90;;;;;;5087941;28;20226;-44
2022/03/30 03:30:24;;;;;;;6.50;3.50;;;5.40;99.90;;;;;;5064910;28;20618;-44
2022/03/30 03:32:50;;;;;;;8.30;3.30;;;5.30;99.90;;;;;;5097323;27;20274;-45
2022/03/30 03:35:17;;;;;;;7.97;3.20;;;5.30;99.90;;;;;;5066509;27;20210;-45
2022/03/30 03:37:45;;;;;;;7.10;3.20;;;5.30;99.90;;;;;;5098928;27;20724;-45
2022/03/30 03:40:13;;;;;;;8.77;3.37;;;5.20;99.90;;;;;;5078796;28;20274;-45
2022/03/30 03:42:40;;;;;;;8.93;3.10;;;5.20;99.90;;;;;;5078071;28;20731;-44
2022/03/30 03:45:08;;;;;;;5.47;3.10;;;5.20;99.90;;;;;;5085846;28;20242;-46
2022/03/30 03:47:35;;;;;;;9.17;3.53;;;5.20;99.90;;;;;;5075748;27;20273;-46
2022/03/30 03:50:03;;;;;;;5.53;3.10;;;5.30;99.90;;;;;;5078339;28;20530;-46
2022/03/30 03:52:31;;;;;;;14.20;3.13;;;5.20;99.90;;;;;;5093923;28;20572;-45
2022/03/30 03:54:59;;;;;;;8.03;3.50;;;5.30;99.90;;;;;;5090561;27;20227;-44
2022/03/30 03:57:26;;;;;;;7.60;3.50;;;5.10;99.90;;;;;;5082717;28;20405;-46
2022/03/30 03:59:53;;;;;;;13.13;3.40;;;5.10;99.90;;;;;;5070854;27;20608;-44
2022/03/30 04:02:19;;;;;;;7.87;3.40;;;5.10;99.90;;;;;;5075942;27;20570;-44
2022/03/30 04:04:46;;;;;;;10.10;3.57;;;5.00;99.90;;;;;;5071232;28;20362;-44
2022/03/30 04:07:13;;;;;;;8.43;3.40;;;5.00;99.90;;;;;;5085734;28;20282;-44
2022/03/30 04:09:40;;;;;;;12.23;3.80;;;5.00;99.90;;;;;;5068140;28;21370;-46
2022/03/30 04:12:10;;;;;;;9.40;3.60;;;5.00;99.90;;;;;;5086176;27;20241;-45
2022/03/30 04:14:36;;;;;;;10.70;3.93;;;5.00;99.90;;;;;;5076426;28;20244;-46
2022/03/30 04:17:04;;;;;;;12.33;3.53;;;5.10;99.90;;;;;;5093497;28;20605;-45
2022/03/30 04:19:31;;;;;;;6.90;3.90;;;5.10;99.90;;;;;;5063019;28;20306;-44
2022/03/30 04:21:57;;;;;;;9.73;3.23;;;5.10;99.90;;;;;;5064104;27;20219;-46
2022/03/30 04:24:24;;;;;;;10.00;3.70;;;5.00;99.90;;;;;;5092364;28;20321;-45
2022/03/30 04:26:51;;;;;;;15.87;4.97;;;5.10;99.90;;;;;;5066067;28;20218;-46
2022/03/30 04:29:20;;;;;;;12.43;3.70;;;5.10;99.90;;;;;;5072605;27;20380;-44
2022/03/30 04:31:46;;;;;;;9.20;4.00;;;5.20;99.90;;;;;;5096109;28;20204;-46
2022/03/30 04:34:13;;;;;;;9.60;3.30;;;5.20;99.90;;;;;;5084698;27;20234;-45
2022/03/30 04:36:40;;;;;;;8.43;3.43;;;5.20;99.90;;;;;;5080712;27;20380;-45
2022/03/30 04:39:07;;;;;;;7.93;4.07;;;5.20;99.90;;;;;;5081405;28;21483;-45
2022/03/30 04:41:34;;;;;;;10.40;3.60;;;5.20;99.90;;;;;;5071183;28;20283;-45
2022/03/30 04:44:01;;;;;;;8.80;3.23;;;5.20;99.90;;;;;;5065777;28;20227;-46
2022/03/30 04:46:29;;;;;;;6.10;3.60;;;5.20;99.90;;;;;;5066926;27;20293;-45
2022/03/30 04:48:56;;;;;;;7.83;3.53;;;5.20;99.90;;;;;;5075496;28;20220;-46
2022/03/30 04:51:23;;;;;;;8.77;3.40;;;5.20;99.90;;;;;;5074663;28;20211;-47
2022/03/30 04:53:50;;;;;;;13.63;3.27;;;5.20;99.90;;;;;;5094141;27;20227;-45
2022/03/30 04:56:17;;;;;;;7.50;3.50;;;5.20;99.90;;;;;;5067476;28;20558;-47
2022/03/30 04:58:43;;;;;;;10.63;3.27;;;5.20;99.90;;;;;;5076856;27;20296;-45
2022/03/30 05:01:10;;;;;;;11.87;3.37;;;5.20;99.90;;;;;;5077973;27;20782;-46
2022/03/30 05:03:38;;;;;;;10.83;3.40;;;5.20;99.90;;;;;;5088810;27;20262;-45
2022/03/30 05:06:05;;;;;;;8.30;3.87;;;5.30;99.90;;;;;;5100341;27;20504;-46
2022/03/30 05:08:32;;;;;;;7.50;3.43;;;5.30;99.90;;;;;;5071344;27;20210;-45
2022/03/30 05:10:59;;;;;;;6.13;3.43;;;5.30;99.90;;;;;;5088615;27;20218;-45
2022/03/30 05:13:26;;;;;;;8.23;3.13;;;5.30;99.90;;;;;;5068909;27;20231;-45
2022/03/30 05:15:53;;;;;;;9.83;3.30;;;5.40;99.90;;;;;;5077463;28;20433;-45
2022/03/30 05:18:20;;;;;;;12.67;3.83;;;5.30;99.90;;;;;;5077389;28;20415;-45
2022/03/30 05:20:48;;;;;;;7.17;3.67;;;5.40;99.90;;;;;;5069801;27;20212;-45
2022/03/30 05:23:15;;;;;;;8.73;3.77;;;5.40;99.90;;;;;;5063335;28;20753;-45
2022/03/30 05:25:42;;;;;;;6.93;3.43;;;5.40;99.90;;;;;;5078589;28;20314;-45
2022/03/30 05:28:09;;;;;;;11.70;3.53;;;5.40;99.90;;;;;;5085289;28;20400;-48
2022/03/30 05:30:36;;;;;;;6.67;3.17;;;5.40;99.90;;;;;;5094918;27;20482;-48
2022/03/30 05:33:03;;;;;;;7.53;3.90;;;5.40;99.90;;;;;;5081809;28;21330;-46
2022/03/30 05:35:30;;;;;;;9.40;3.30;;;5.40;99.90;;;;;;5093225;28;20223;-45
2022/03/30 05:37:58;;;;;;;8.67;3.80;;;5.40;99.90;;;;;;5083491;27;20223;-46
2022/03/30 05:40:25;;;;;;;10.17;3.70;;;5.40;99.90;;;;;;5088348;28;20232;-49
2022/03/30 05:42:51;;;;;;;5.63;3.27;;;5.40;99.90;;;;;;5097511;27;20203;-44
2022/03/30 05:45:18;;;;;;;5.13;3.40;;;5.40;99.90;;;;;;5080171;28;20287;-49
2022/03/30 05:47:45;;;;;;;6.57;3.30;;;5.50;99.90;;;;;;5078170;28;20617;-46
2022/03/30 05:50:12;;;;;;;10.77;3.57;;;5.50;99.90;;;;;;5093462;28;20432;-48
2022/03/30 05:52:39;;;;;;;8.77;3.57;;;5.50;99.90;;;;;;5079409;28;21003;-44
2022/03/30 05:55:09;;;;;;;10.87;3.60;;;5.60;99.90;;;;;;5096216;28;20247;-49
2022/03/30 05:57:36;;;;;;;7.93;4.07;;;5.50;99.90;;;;;;5073452;28;22616;-43
2022/03/30 06:00:05;;;;;;;9.57;3.60;;;5.60;99.90;;;;;;5088951;28;20208;-45
2022/03/30 06:02:32;;;;;;;6.50;3.17;;;5.60;99.90;;;;;;5097506;28;20622;-43
2022/03/30 06:04:59;;;;;;;12.00;3.43;;;5.60;99.90;;;;;;5071557;28;20232;-46
2022/03/30 06:07:26;;;;;;;11.20;4.20;;;5.50;99.90;;;;;;5068823;28;20279;-49
2022/03/30 06:09:53;;;;;;;8.70;3.40;;;5.60;99.90;;;;;;5087529;28;20235;-44
2022/03/30 06:12:23;;;;;;;10.23;3.57;;;5.60;99.90;;;;;;5089276;28;20207;-49
2022/03/30 06:14:51;;;;;;;7.90;3.63;;;5.70;99.90;;;;;;5093918;28;20226;-44
2022/03/30 06:17:19;;;;;;;12.33;3.63;;;5.60;99.90;;;;;;5086779;28;20214;-46
2022/03/30 06:19:49;;;;;;;9.03;3.70;;;5.70;99.90;;;;;;5087036;28;20792;-47
2022/03/30 06:22:16;;;;;;;11.63;3.80;;;5.70;99.90;;;;;;5092035;28;20274;-47
2022/03/30 06:24:43;;;;;;;14.70;4.53;;;5.70;99.90;;;;;;5071503;28;20301;-45
2022/03/30 06:27:11;;;;;;;11.30;3.50;;;5.70;99.90;;;;;;5083500;28;20503;-46
2022/03/30 06:29:41;;;;;;;8.97;4.10;;;5.70;99.90;;;;;;5078099;28;20254;-44
2022/03/30 06:32:09;;;;;;;5.80;3.50;;;5.70;99.90;;;;;;5093326;28;20214;-46
2022/03/30 06:34:38;;;;;;;6.87;4.03;;;5.70;99.90;;;;;;5084633;28;20892;-45
2022/03/30 06:37:06;;;;;;;9.63;4.83;;;5.70;99.90;;;;;;5103096;28;20211;-44
2022/03/30 06:39:33;;;;;;;10.00;3.30;;;5.60;99.90;;;;;;5075014;28;20491;-45
2022/03/30 06:42:00;;;;;;;6.00;2.67;;;5.60;99.90;;;;;;5092294;27;20617;-44
2022/03/30 06:44:27;;;;;;;3.80;2.37;;;5.50;99.90;;;;;;5094956;27;20232;-45
2022/03/30 06:46:55;;;;;;;5.73;2.30;;;5.50;99.90;;;;;;5099175;27;20216;-44
2022/03/30 06:49:22;;;;;;;3.07;2.40;;;5.40;99.90;;;;;;5098039;27;20713;-45
2022/03/30 06:51:49;;;;;;;3.20;2.80;;;5.50;99.90;;;;;;5088570;27;20200;-44
2022/03/30 06:54:16;;;;;;;4.80;2.50;;;5.50;99.90;;;;;;5072717;27;20509;-46
2022/03/30 06:56:43;;;;;;;3.37;2.70;;;5.50;99.90;;;;;;5089835;27;20462;-45
2022/03/30 06:59:12;;;;;;;4.83;2.70;;;5.50;99.90;;;;;;5082065;28;20232;-45
2022/03/30 07:01:38;;;;;;;8.43;2.73;;;5.50;99.90;;;;;;5089036;27;20199;-45
2022/03/30 07:04:07;;;;;;;3.90;2.17;;;5.50;99.90;;;;;;5097625;27;20227;-45
2022/03/30 07:06:34;;;;;;;4.10;2.53;;;5.50;99.90;;;;;;5086124;27;20317;-44
2022/03/30 07:11:45;;;;;;;4.93;3.17;;;5.60;99.90;;;;;;5083195;27;20332;-43
2022/03/30 07:14:12;;;;;;;5.67;3.00;;;5.60;99.90;;;;;;5085127;27;20613;-48
2022/03/30 07:16:39;;;;;;;5.57;2.80;;;5.50;99.90;;;;;;5074496;27;20368;-43
2022/03/30 07:19:07;;;;;;;5.20;3.07;;;5.50;99.90;;;;;;5090604;27;20250;-45
2022/03/30 07:21:34;;;;;;;3.10;2.60;;;5.50;99.90;;;;;;5077851;28;20210;-44
2022/03/30 07:24:00;;;;;;;5.73;3.23;;;5.40;99.90;;;;;;5076441;28;20345;-44
2022/03/30 07:26:27;;;;;;;7.33;2.77;;;5.40;99.90;;;;;;5073634;28;20214;-45
2022/03/30 07:28:54;;;;;;;4.83;2.37;;;5.40;99.90;;;;;;5079640;27;20669;-44
2022/03/30 07:31:21;;;;;;;4.10;2.67;;;5.40;99.90;;;;;;5089408;27;20287;-45
2022/03/30 07:33:48;;;;;;;5.57;2.80;;;5.40;99.90;;;;;;5094748;27;20329;-46
2022/03/30 07:36:16;;;;;;;4.30;3.10;;;5.30;99.90;;;;;;5101327;27;20214;-45
2022/03/30 07:38:43;;;;;;;6.27;2.73;;;5.10;99.90;;;;;;5088412;27;20239;-46
2022/03/30 07:41:09;;;;;;;5.20;2.93;;;5.10;99.90;;;;;;5100775;27;20205;-44
2022/03/30 07:43:36;;;;;;;4.93;2.93;;;5.00;99.90;;;;;;5073091;28;20233;-44
2022/03/30 07:46:03;;;;;;;5.53;2.87;;;5.10;99.90;;;;;;5092058;27;20526;-46
2022/03/30 07:48:30;;;;;;;4.03;3.03;;;5.10;99.90;;;;;;5095270;28;20617;-46
2022/03/30 07:50:57;;;;;;;3.13;2.70;;;5.10;99.90;;;;;;5101692;27;20222;-46
2022/03/30 07:53:25;;;;;;;3.83;3.00;;;5.10;99.90;;;;;;5091565;28;20241;-44
2022/03/30 07:55:52;;;;;;;3.47;3.03;;;5.00;99.90;;;;;;5100727;27;20203;-45
2022/03/30 07:58:18;;;;;;;5.27;2.93;;;4.90;99.90;;;;;;5075263;27;20334;-45
2022/03/30 08:00:45;;;;;;;3.47;2.90;;;5.00;99.90;;;;;;5100224;28;20514;-45
2022/03/30 08:03:12;;;;;;;3.90;3.03;;;4.90;99.90;;;;;;5089252;28;20233;-44
2022/03/30 08:05:39;;;;;;;5.20;3.07;;;4.90;99.90;;;;;;5097257;28;20206;-45
2022/03/30 08:08:07;;;;;;;3.73;2.90;;;4.80;99.90;;;;;;5091784;27;20290;-46
2022/03/30 08:10:37;;;;;;;3.83;3.00;;;4.90;99.90;;;;;;5098410;28;20207;-45
2022/03/30 08:13:05;;;;;;;4.30;2.70;;;4.80;99.90;;;;;;5084493;27;20238;-46
2022/03/30 08:15:35;;;;;;;3.20;2.60;;;4.90;99.90;;;;;;5095706;27;20207;-45
2022/03/30 08:18:02;;;;;;;3.30;2.47;;;4.90;99.90;;;;;;5092471;28;20217;-46
2022/03/30 08:23:13;;;;;;;2.80;2.60;;;4.90;99.90;;;;;;5081830;28;20244;-45
2022/03/30 08:25:42;;;;;;;2.93;2.63;;;4.90;99.90;;;;;;5098285;28;20765;-44
2022/03/30 08:28:08;;;;;;;3.10;2.57;;;4.80;99.90;;;;;;5081015;28;20625;-47
2022/03/30 08:30:35;;;;;;;2.97;2.40;;;4.80;99.90;;;;;;5099617;27;20317;-47
2022/03/30 08:33:04;;;;;;;2.80;2.43;;;4.80;99.90;;;;;;5090337;27;20530;-46
2022/03/30 08:35:31;;;;;;;2.13;1.93;;;4.80;99.90;;;;;;5096438;28;20526;-45
2022/03/30 08:37:58;;;;;;;3.03;2.40;;;4.80;99.90;;;;;;5096439;28;20529;-44
2022/03/30 08:40:25;;;;;;;2.80;2.47;;;4.70;99.90;;;;;;5088794;28;20232;-46
2022/03/30 08:42:55;;;;;;;1.90;1.80;;;4.70;99.90;;;;;;5097534;28;20211;-44
2022/03/30 08:45:22;;;;;;;1.87;1.77;;;4.70;99.90;;;;;;5083907;28;20457;-45
2022/03/30 08:47:49;;;;;;;1.90;1.80;;;4.60;99.90;;;;;;5090196;28;20232;-46
2022/03/30 08:50:16;;;;;;;2.10;1.90;;;4.70;99.90;;;;;;5091131;28;20433;-45
2022/03/30 08:52:45;;;;;;;2.00;1.80;;;4.70;99.90;;;;;;5096825;28;20441;-45
2022/03/30 08:55:12;;;;;;;2.30;2.10;;;4.70;99.90;;;;;;5080596;28;20210;-45
2022/03/30 08:57:38;;;;;;;3.50;2.00;;;4.70;99.90;;;;;;5096699;28;20535;-46
2022/03/30 09:00:09;;;;;;;2.13;2.00;;;4.80;99.90;;;;;;5080599;28;20236;-44
2022/03/30 09:02:38;;;;;;;2.37;2.13;;;5.10;99.90;;;;;;5088555;28;20395;-45
2022/03/30 09:05:16;;;;;;;2.60;2.20;;;4.90;99.90;;;;;;5092748;28;20230;-44
2022/03/30 09:07:45;;;;;;;2.00;1.90;;;5.00;99.90;;;;;;5073649;27;20213;-45
2022/03/30 09:10:15;;;;;;;1.87;1.77;;;4.90;99.90;;;;;;5081073;27;20731;-46
2022/03/30 09:12:44;;;;;;;2.07;1.87;;;4.80;99.90;;;;;;5092459;28;20378;-45
2022/03/30 09:15:14;;;;;;;2.67;2.10;;;4.80;99.90;;;;;;5064403;28;20535;-45
2022/03/30 09:17:42;;;;;;;2.13;2.00;;;4.80;99.90;;;;;;5088959;28;20209;-45
2022/03/30 09:20:16;;;;;;;2.03;1.83;;;4.80;99.90;;;;;;5090224;27;20222;-45
2022/03/30 09:22:45;;;;;;;2.40;1.90;;;4.90;99.90;;;;;;5098578;27;20437;-46
2022/03/30 09:25:12;;;;;;;2.40;1.93;;;5.00;99.90;;;;;;5076199;27;20269;-45
2022/03/30 09:27:42;;;;;;;2.20;2.00;;;5.10;99.90;;;;;;5096182;28;20494;-46
2022/03/30 09:30:14;;;;;;;4.87;3.60;;;5.00;99.90;;;;;;5071698;28;20535;-45
2022/03/30 09:32:42;;;;;;;4.07;3.37;;;5.00;99.90;;;;;;5086825;27;20418;-46
2022/03/30 09:35:20;;;;;;;6.70;4.57;;;4.90;99.90;;;;;;5090947;27;20216;-44
2022/03/30 09:38:02;;;;;;;6.63;5.10;;;4.90;99.90;;;;;;5097209;27;20224;-45
2022/03/30 09:40:44;;;;;;;6.33;4.80;;;5.00;99.90;;;;;;5088956;28;20222;-45
2022/03/30 09:43:14;;;;;;;5.77;4.87;;;5.10;99.90;;;;;;5099792;27;20233;-45
2022/03/30 09:45:42;;;;;;;7.10;5.03;;;5.20;99.90;;;;;;5074572;28;20241;-45
2022/03/30 09:48:14;;;;;;;7.53;4.80;;;5.10;99.90;;;;;;5088486;28;20238;-45
2022/03/30 09:50:49;;;;;;;6.43;4.80;;;5.20;99.90;;;;;;5088868;27;20543;-47
2022/03/30 09:53:19;;;;;;;6.67;4.70;;;5.20;99.90;;;;;;5096334;28;20282;-45
2022/03/30 09:55:57;;;;;;;4.93;4.37;;;5.30;99.90;;;;;;5083170;28;20314;-46
2022/03/30 09:58:25;;;;;;;5.97;4.67;;;5.40;99.90;;;;;;5097200;28;20241;-46
2022/03/30 10:01:19;;;;;;;6.00;4.60;;;5.50;99.90;;;;;;5074179;28;20605;-45
2022/03/30 10:03:51;;;;;;;5.17;3.83;;;5.40;99.90;;;;;;5089117;28;20597;-45
2022/03/30 10:06:20;;;;;;;5.70;3.70;;;5.30;99.90;;;;;;5091610;28;20274;-45
2022/03/30 10:08:49;;;;;;;6.53;3.23;;;5.30;99.90;;;;;;5081201;28;20298;-45
2022/03/30 10:11:17;;;;;;;4.03;3.13;;;5.40;99.90;;;;;;5094430;28;20210;-45
2022/03/30 10:13:46;;;;;;;4.70;2.40;;;5.50;99.90;;;;;;5083223;28;20254;-45
2022/03/30 10:16:16;;;;;;;4.07;2.00;;;5.60;99.90;;;;;;5099271;28;20208;-44
2022/03/30 10:18:46;;;;;;;3.73;2.50;;;5.50;99.90;;;;;;5073353;28;20234;-44
2022/03/30 10:21:24;;;;;;;3.13;2.40;;;5.50;99.90;;;;;;5096318;28;20203;-44
2022/03/30 10:24:34;;;;;;;3.13;2.27;;;5.60;99.90;;;;;;5084434;28;20307;-44
2022/03/30 10:27:10;;;;;;;4.37;2.57;;;5.60;99.90;;;;;;5096930;28;20313;-44
2022/03/30 10:29:38;;;;;;;5.07;2.23;;;5.50;99.90;;;;;;5081495;28;20204;-44
2022/03/30 10:32:14;;;;;;;8.20;2.97;;;5.40;99.90;;;;;;5078900;28;20216;-44
2022/03/30 10:34:49;;;;;;;5.33;2.17;;;5.30;99.90;;;;;;5083541;28;20341;-45
2022/03/30 10:37:24;;;;;;;6.03;2.80;;;5.30;99.90;;;;;;5092467;28;21711;-48
2022/03/30 10:39:56;;;;;;;4.93;2.60;;;5.30;99.90;;;;;;5081473;28;20229;-45
2022/03/30 10:42:24;;;;;;;3.80;2.67;;;5.30;99.90;;;;;;5091892;28;20208;-45
2022/03/30 10:44:53;;;;;;;5.20;2.53;;;5.20;99.90;;;;;;5082255;28;20647;-44
2022/03/30 10:47:23;;;;;;;3.60;2.40;;;5.30;99.90;;;;;;5079313;28;20213;-44
2022/03/30 10:49:54;;;;;;;7.93;3.10;;;5.30;99.90;;;;;;5090694;28;20222;-45
2022/03/30 10:52:37;;;;;;;4.13;2.63;;;5.40;99.90;;;;;;5076063;28;20307;-44
2022/03/30 10:55:31;;;;;;;4.97;2.90;;;5.60;99.90;;;;;;5081375;28;20614;-45
2022/03/30 10:58:01;;;;;;;4.53;3.10;;;5.60;99.90;;;;;;5079242;28;20207;-45
2022/03/30 11:00:31;;;;;;;4.37;3.03;;;5.60;99.90;;;;;;5074832;28;20227;-45
2022/03/30 11:03:09;;;;;;;4.73;2.97;;;5.50;99.90;;;;;;5066656;28;20215;-48
2022/03/30 11:05:38;;;;;;;9.07;3.07;;;5.60;99.90;;;;;;5088918;28;20485;-45
2022/03/30 11:08:07;;;;;;;4.47;2.70;;;5.70;99.90;;;;;;5092504;28;20542;-47
2022/03/30 11:10:47;;;;;;;6.03;3.10;;;5.70;99.90;;;;;;5085089;28;20204;-44
2022/03/30 11:13:23;;;;;;;5.63;2.97;;;5.60;99.90;;;;;;5079267;28;20828;-43
2022/03/30 11:16:13;;;;;;;3.67;2.63;;;5.60;99.90;;;;;;5078394;28;20282;-48
2022/03/30 11:19:02;;;;;;;5.37;3.10;;;5.60;99.90;;;;;;5081804;27;20222;-44
2022/03/30 11:21:31;;;;;;;5.07;2.63;;;5.60;99.90;;;;;;5092897;27;20274;-44
2022/03/30 11:24:11;;;;;;;2.47;2.03;;;5.60;99.90;;;;;;5100396;28;20230;-44
2022/03/30 11:27:20;;;;;;;3.20;2.63;;;5.60;99.90;;;;;;5071844;27;20403;-44
2022/03/30 11:29:58;;;;;;;4.27;2.70;;;5.70;99.90;;;;;;5087732;27;20207;-45
2022/03/30 11:32:41;;;;;;;4.63;2.37;;;5.60;99.90;;;;;;5075135;28;20205;-44
2022/03/30 11:35:11;;;;;;;3.27;2.50;;;5.70;99.90;;;;;;5088921;28;20203;-44
2022/03/30 11:37:41;;;;;;;3.47;2.57;;;5.80;99.90;;;;;;5079644;27;20439;-48
2022/03/30 11:40:10;;;;;;;2.80;2.30;;;5.80;99.90;;;;;;5092687;27;20610;-45
2022/03/30 11:42:38;;;;;;;3.93;2.70;;;6.00;99.90;;;;;;5084005;27;20216;-49
2022/03/30 11:45:19;;;;;;;2.90;2.27;;;6.00;99.90;;;;;;5084498;28;20419;-48
2022/03/30 11:47:47;;;;;;;5.43;3.07;;;6.10;99.90;;;;;;5062646;27;20392;-47
2022/03/30 11:50:17;;;;;;;4.23;2.73;;;6.20;99.90;;;;;;5101401;27;20502;-45
2022/03/30 11:52:53;;;;;;;6.13;4.07;;;6.30;99.90;;;;;;5090808;28;20212;-45
2022/03/30 11:55:20;;;;;;;2.80;2.20;;;6.10;99.90;;;;;;5102402;27;20203;-44
2022/03/30 11:57:47;;;;;;;3.77;2.60;;;6.10;99.90;;;;;;5086747;27;20213;-44
2022/03/30 12:00:15;;;;;;;3.00;2.30;;;6.10;99.90;;;;;;5089735;27;20228;-44
2022/03/30 12:02:44;;;;;;;2.40;1.90;;;6.10;99.90;;;;;;5069618;27;20217;-45
2022/03/30 12:05:12;;;;;;;2.13;1.93;;;6.20;99.90;;;;;;5068935;27;20206;-45
2022/03/30 12:07:40;;;;;;;2.70;2.00;;;6.20;99.90;;;;;;5086046;27;20566;-44
2022/03/30 12:10:14;;;;;;;3.60;2.63;;;6.10;99.90;;;;;;5091727;27;20197;-44
2022/03/30 12:12:43;;;;;;;2.60;1.90;;;6.20;99.90;;;;;;5084016;27;20223;-45
2022/03/30 12:15:12;;;;;;;2.00;1.60;;;6.20;99.90;;;;;;5063705;27;20511;-46
2022/03/30 12:17:40;;;;;;;1.43;1.30;;;6.40;99.90;;;;;;5083084;27;20231;-45
2022/03/30 12:20:09;;;;;;;2.80;1.53;;;6.40;99.90;;;;;;5075903;27;20223;-44
2022/03/30 12:22:38;;;;;;;3.13;1.30;;;6.40;99.90;;;;;;5066307;27;20214;-43
2022/03/30 12:25:18;;;;;;;3.73;1.50;;;6.40;99.90;;;;;;5077382;28;20550;-47
2022/03/30 12:27:45;;;;;;;1.50;1.17;;;6.40;99.90;;;;;;5073118;27;20207;-45
2022/03/30 12:30:12;;;;;;;3.47;1.37;;;6.40;99.90;;;;;;5083389;27;20430;-44
2022/03/30 12:32:39;;;;;;;3.67;1.23;;;6.40;99.90;;;;;;5065112;27;20207;-46
2022/03/30 12:35:10;;;;;;;2.47;1.10;;;6.40;99.90;;;;;;5057942;27;20226;-44
2022/03/30 12:37:38;;;;;;;2.47;1.40;;;6.60;99.90;;;;;;5060319;27;20199;-44
2022/03/30 12:40:10;;;;;;;5.30;1.53;;;6.60;99.90;;;;;;5061443;27;20516;-45
2022/03/30 12:42:38;;;;;;;2.53;1.27;;;6.50;99.90;;;;;;5053933;28;20869;-44
2022/03/30 12:45:10;;;;;;;2.23;1.80;;;6.50;99.90;;;;;;5076255;27;20623;-43
2022/03/30 12:47:39;;;;;;;2.07;1.40;;;6.70;99.90;;;;;;5085182;27;20195;-45
2022/03/30 12:50:08;;;;;;;2.97;2.03;;;6.70;99.90;;;;;;5057000;27;21188;-44
2022/03/30 12:52:40;;;;;;;3.63;1.60;;;6.70;99.90;;;;;;5075896;27;20200;-45
2022/03/30 12:55:16;;;;;;;6.53;2.10;;;6.70;99.90;;;;;;5058327;27;20443;-44
2022/03/30 12:57:56;;;;;;;4.27;2.10;;;6.80;99.90;;;;;;5056037;28;20215;-44
2022/03/30 13:00:28;;;;;;;2.07;1.87;;;6.70;99.90;;;;;;5080108;27;20296;-44
2022/03/30 13:03:13;;;;;;;3.40;1.60;;;6.70;99.90;;;;;;5073301;27;20934;-45
2022/03/30 13:05:42;;;;;;;2.77;2.00;;;6.70;99.90;;;;;;5028912;28;20217;-43
2022/03/30 13:08:12;;;;;;;2.47;1.50;;;6.80;99.90;;;;;;5056888;27;20214;-45
2022/03/30 13:10:56;;;;;;;5.57;2.77;;;6.70;99.90;;;;;;5069639;27;20228;-43
2022/03/30 13:13:28;;;;;;;3.20;2.73;;;6.70;99.90;;;;;;5061097;27;20231;-44
2022/03/30 13:16:05;;;;;;;2.80;1.90;;;6.60;99.90;;;;;;5067799;27;20566;-45